createdAt,value
2022-11-22T00:01:36.485Z,71.72
2022-11-22T00:06:38.431Z,78.38
2022-11-22T00:11:40.483Z,70.25
2022-11-22T00:16:42.551Z,74.57
2022-11-22T00:21:44.443Z,73.97
2022-11-22T00:26:46.311Z,67.88
2022-11-22T00:31:48.259Z,66.95
2022-11-22T00:36:50.189Z,67.18
2022-11-22T00:41:52.336Z,69.32
2022-11-22T00:46:54.290Z,76.50
2022-11-22T00:51:56.351Z,72.20
2022-11-22T00:56:58.304Z,71.00
2022-11-22T01:02:00.149Z,70.28
2022-11-22T01:07:02.801Z,73.85
2022-11-22T01:12:06.464Z,74.20
2022-11-22T01:17:08.421Z,70.47
2022-11-22T01:22:10.501Z,72.32
2022-11-22T01:27:12.415Z,71.00
2022-11-22T01:32:14.277Z,70.30
2022-11-22T01:37:16.167Z,76.68
2022-11-22T01:42:18.009Z,75.35
2022-11-22T01:47:25.440Z,77.85
2022-11-22T01:52:31.981Z,76.72
2022-11-22T01:57:36.703Z,70.13
2022-11-22T02:02:38.956Z,80.55
2022-11-22T02:07:44.581Z,70.15
2022-11-22T02:12:46.984Z,70.00
2022-11-22T02:17:48.883Z,68.63
2022-11-22T02:23:03.770Z,72.57
2022-11-22T02:28:05.924Z,68.85
2022-11-22T02:33:08.252Z,71.30
2022-11-22T02:38:22.528Z,63.85
2022-11-22T02:43:29.584Z,69.93
2022-11-22T02:48:31.500Z,65.45
2022-11-22T02:53:33.756Z,73.93
2022-11-22T02:58:35.788Z,68.60
2022-11-22T03:03:37.961Z,67.22
2022-11-22T03:08:39.908Z,66.88
2022-11-22T03:13:42.119Z,67.53
2022-11-22T03:18:44.556Z,69.07
2022-11-22T03:23:46.754Z,74.55
2022-11-22T03:28:48.757Z,73.22
2022-11-22T03:33:51.240Z,64.45
2022-11-22T03:38:53.289Z,78.03
2022-11-22T03:43:55.344Z,72.90
2022-11-22T03:48:57.301Z,83.65
2022-11-22T03:53:59.717Z,86.68
2022-11-22T03:59:03.555Z,74.75
2022-11-22T04:09:13.907Z,73.60
2022-11-22T04:14:40.787Z,78.78
2022-11-22T04:20:02.588Z,76.70
2022-11-22T04:25:14.182Z,82.55
2022-11-22T04:30:20.496Z,75.80
2022-11-22T04:35:23.021Z,72.90
2022-11-22T04:40:24.907Z,79.65
2022-11-22T04:45:26.889Z,77.50
2022-11-22T04:50:48.556Z,83.78
2022-11-22T04:55:50.998Z,85.20
2022-11-22T05:00:53.077Z,88.90
2022-11-22T05:05:55.044Z,93.82
2022-11-22T05:10:57.557Z,97.03
2022-11-22T05:16:00.690Z,100.13
2022-11-22T05:21:13.560Z,94.53
2022-11-22T05:26:15.471Z,96.97
2022-11-22T05:31:23.337Z,101.50
2022-11-22T05:36:25.782Z,107.15
2022-11-22T05:41:27.953Z,102.22
2022-11-22T05:46:30.599Z,103.65
2022-11-22T05:51:34.993Z,100.13
2022-11-22T05:56:37.413Z,114.95
2022-11-22T06:01:39.342Z,124.53
2022-11-22T06:06:41.288Z,123.15
2022-11-22T06:11:43.096Z,108.13
2022-11-22T06:16:45.125Z,124.50
2022-11-22T06:21:47.156Z,126.85
2022-11-22T06:26:49.124Z,122.97
2022-11-22T06:31:50.955Z,123.05
2022-11-22T06:36:52.832Z,124.22
2022-11-22T06:41:54.832Z,148.88
2022-11-22T06:46:56.778Z,132.13
2022-11-22T06:51:58.612Z,136.23
2022-11-22T06:57:00.726Z,115.13
2022-11-22T07:02:06.433Z,123.72
2022-11-22T07:07:08.931Z,151.20
2022-11-22T07:12:10.843Z,141.18
2022-11-22T07:17:12.891Z,166.40
2022-11-22T07:22:14.784Z,144.93
2022-11-22T07:27:16.779Z,176.93
2022-11-22T07:32:18.693Z,153.68
2022-11-22T07:37:20.828Z,152.15
2022-11-22T07:42:26.140Z,147.10
2022-11-22T07:47:28.928Z,168.82
2022-11-22T07:52:30.819Z,156.20
2022-11-22T07:57:33.389Z,166.93
2022-11-22T08:02:37.529Z,200.18
2022-11-22T08:07:39.789Z,183.80
2022-11-22T08:12:42.494Z,188.57
2022-11-22T08:17:44.625Z,169.40
2022-11-22T08:22:46.510Z,161.07
2022-11-22T08:27:48.439Z,176.70
2022-11-22T08:32:51.603Z,158.20
2022-11-22T08:37:57.542Z,169.20
2022-11-22T08:42:59.758Z,160.07
2022-11-22T08:48:01.865Z,166.18
2022-11-22T08:53:04.034Z,153.60
2022-11-22T08:58:06.111Z,149.57
2022-11-22T09:03:07.973Z,156.65
2022-11-22T09:08:25.226Z,140.45
2022-11-22T09:13:28.113Z,151.63
2022-11-22T09:18:30.161Z,131.47
2022-11-22T09:23:32.804Z,143.02
2022-11-22T09:28:35.828Z,136.32
2022-11-22T09:33:39.444Z,131.37
2022-11-22T09:38:41.959Z,122.82
2022-11-22T09:43:57.812Z,118.50
2022-11-22T09:49:02.977Z,120.43
2022-11-22T09:54:07.134Z,115.20
2022-11-22T09:59:35.510Z,119.10
2022-11-22T10:04:40.351Z,118.28
2022-11-22T10:10:06.457Z,111.78
2022-11-22T10:15:42.914Z,114.13
2022-11-22T10:20:48.823Z,116.80
2022-11-22T10:26:12.612Z,98.63
2022-11-22T10:31:23.654Z,107.53
2022-11-22T10:36:44.197Z,112.20
2022-11-22T10:42:04.646Z,101.30
2022-11-22T10:47:18.772Z,103.70
2022-11-22T10:52:27.011Z,100.43
2022-11-22T10:57:38.207Z,91.20
2022-11-22T11:03:15.812Z,101.85
2022-11-22T11:14:37.702Z,102.75
2022-11-22T11:19:44.294Z,111.22
2022-11-22T11:24:46.231Z,93.68
2022-11-22T11:29:54.906Z,104.05
2022-11-22T11:35:07.932Z,77.43
2022-11-22T11:40:31.377Z,59.70
2022-11-22T11:45:33.290Z,58.22
2022-11-22T11:50:35.267Z,60.63
2022-11-22T11:55:37.529Z,68.47
2022-11-22T12:00:40.416Z,54.88
2022-11-22T12:05:42.771Z,52.58
2022-11-22T12:10:56.285Z,60.30
2022-11-22T12:16:14.119Z,69.22
2022-11-22T12:22:09.407Z,69.47
2022-11-22T12:27:12.752Z,67.20
2022-11-22T12:37:31.473Z,55.35
2022-11-22T12:42:44.361Z,67.88
2022-11-22T12:47:47.608Z,66.50
2022-11-22T12:52:59.163Z,74.43
2022-11-22T12:58:21.833Z,76.88
2022-11-22T13:03:32.385Z,86.63
2022-11-22T13:08:37.464Z,88.30
2022-11-22T13:13:43.931Z,90.50
2022-11-22T13:18:51.688Z,103.07
2022-11-22T13:24:09.632Z,96.82
2022-11-22T13:29:41.732Z,96.80
2022-11-22T13:35:18.055Z,95.05
2022-11-22T13:40:31.305Z,89.75
2022-11-22T13:45:49.755Z,88.63
2022-11-22T13:50:51.615Z,78.57
2022-11-22T13:55:53.745Z,90.32
2022-11-22T14:00:57.300Z,87.43
2022-11-22T14:11:27.535Z,89.90
2022-11-22T14:16:43.191Z,91.18
2022-11-22T14:22:03.355Z,91.53
2022-11-22T14:27:20.430Z,90.57
2022-11-22T14:32:26.526Z,96.63
2022-11-22T14:37:31.888Z,98.53
2022-11-22T14:42:57.158Z,99.70
2022-11-22T14:48:13.316Z,95.68
2022-11-22T14:53:21.348Z,209.27
2022-11-22T14:58:28.489Z,89.35
2022-11-22T15:09:16.118Z,95.40
2022-11-22T15:09:53.322Z,103.15
2022-11-22T15:58:56.966Z,89.30
2022-11-22T16:03:59.488Z,92.72
2022-11-22T16:09:06.249Z,98.38
2022-11-22T16:14:36.388Z,105.28
2022-11-22T16:19:38.455Z,100.47
2022-11-22T16:24:40.387Z,97.47
2022-11-22T16:29:57.499Z,103.85
2022-11-22T16:35:27.643Z,93.75
2022-11-22T16:40:22.947Z,86.15
2022-11-22T16:45:25.025Z,82.65
2022-11-22T16:50:27.120Z,79.82
2022-11-22T16:55:29.163Z,84.43
2022-11-22T17:00:32.469Z,84.60
2022-11-22T17:05:34.377Z,91.82
2022-11-22T17:10:45.459Z,96.47
2022-11-22T17:15:48.207Z,90.35
2022-11-22T17:20:50.410Z,119.53
2022-11-22T17:25:52.347Z,92.40
2022-11-22T17:30:58.573Z,89.28
2022-11-22T17:36:00.472Z,91.85
2022-11-22T17:41:02.432Z,105.43
2022-11-22T17:46:04.399Z,102.60
2022-11-22T17:51:11.610Z,96.43
2022-11-22T17:56:13.844Z,96.78
2022-11-22T18:01:21.139Z,135.43
2022-11-22T18:06:23.298Z,102.10
2022-11-22T18:11:25.176Z,108.80
2022-11-22T18:16:28.900Z,96.13
2022-11-22T18:21:32.556Z,93.80
2022-11-22T18:26:40.006Z,107.28
2022-11-22T18:31:51.742Z,107.03
2022-11-22T18:37:00.431Z,139.02
2022-11-22T18:42:16.512Z,127.93
2022-11-22T18:47:18.600Z,104.78
2022-11-22T18:52:22.991Z,102.93
2022-11-22T18:57:25.116Z,105.35
2022-11-22T19:02:27.746Z,115.65
2022-11-22T19:07:29.802Z,106.72
2022-11-22T19:12:32.370Z,94.00
2022-11-22T19:17:34.408Z,99.63
2022-11-22T19:22:36.557Z,117.78
2022-11-22T19:27:38.439Z,108.32
2022-11-22T19:32:40.745Z,109.68
2022-11-22T19:37:43.260Z,99.38
2022-11-22T19:42:45.095Z,116.93
2022-11-22T19:47:53.260Z,104.72
2022-11-22T19:52:55.699Z,108.53
2022-11-22T19:57:57.791Z,118.22
2022-11-22T20:02:59.643Z,100.88
2022-11-22T20:08:01.524Z,96.70
2022-11-22T20:13:07.932Z,103.40
2022-11-22T20:18:12.334Z,107.72
2022-11-22T20:23:14.432Z,108.78
2022-11-22T20:28:16.377Z,101.53
2022-11-22T20:33:18.279Z,97.07
2022-11-22T20:38:21.292Z,96.63
2022-11-22T20:43:23.487Z,110.07
2022-11-22T20:48:25.592Z,103.90
2022-11-22T20:53:29.040Z,103.75
2022-11-22T20:58:31.931Z,103.97
2022-11-22T21:03:34.696Z,108.80
2022-11-22T21:08:36.711Z,109.00
2022-11-22T21:13:38.694Z,111.78
2022-11-22T21:18:40.691Z,117.43
2022-11-22T21:23:43.707Z,126.20
2022-11-22T21:28:45.725Z,136.53
2022-11-22T21:33:48.081Z,118.55
2022-11-22T21:38:50.266Z,131.07
2022-11-22T21:43:54.978Z,123.35
2022-11-22T21:48:56.977Z,131.45
2022-11-22T21:54:00.228Z,127.28
2022-11-22T21:59:02.259Z,122.15
2022-11-22T22:04:04.792Z,131.75
2022-11-22T22:09:06.724Z,144.75
2022-11-22T22:14:08.768Z,140.25
2022-11-22T22:19:11.491Z,138.65
2022-11-22T22:24:13.782Z,130.77
2022-11-22T22:29:15.648Z,138.18
2022-11-22T22:34:18.274Z,130.10
2022-11-22T22:39:20.224Z,134.63
2022-11-22T22:44:22.050Z,133.30
2022-11-22T22:49:23.929Z,135.25
2022-11-22T22:54:25.955Z,128.25
2022-11-22T22:59:27.948Z,121.32
2022-11-22T23:04:30.074Z,122.95
2022-11-22T23:09:32.433Z,110.07
2022-11-22T23:14:34.575Z,117.35
2022-11-22T23:19:37.017Z,111.47
2022-11-22T23:24:39.163Z,119.75
2022-11-22T23:29:41.034Z,127.68
2022-11-22T23:34:43.030Z,114.13
2022-11-22T23:39:44.935Z,109.97
2022-11-22T23:44:47.042Z,122.93
2022-11-22T23:49:48.900Z,108.30
2022-11-22T23:54:50.763Z,114.30
2022-11-22T23:59:52.664Z,100.60
